createdAt,value
2019-03-04T00:00:45.250Z,1.00
2019-03-04T00:01:29.504Z,1.00
2019-03-04T00:02:05.068Z,1.00
2019-03-04T00:02:55.288Z,1.00
2019-03-04T00:03:32.296Z,1.00
2019-03-04T00:04:07.807Z,1.00
2019-03-04T00:04:43.255Z,1.00
2019-03-04T00:05:18.752Z,1.00
2019-03-04T00:05:54.478Z,1.00
2019-03-04T00:06:29.830Z,1.00
2019-03-04T00:07:05.379Z,1.00
2019-03-04T00:07:40.771Z,1.00
2019-03-04T00:08:17.133Z,1.00
2019-03-04T00:08:52.487Z,1.00
2019-03-04T00:09:27.785Z,1.00
2019-03-04T00:10:03.206Z,1.00
2019-03-04T00:10:38.702Z,1.00
2019-03-04T00:11:13.987Z,1.00
2019-03-04T00:11:49.406Z,1.00
2019-03-04T00:12:24.822Z,1.00
2019-03-04T00:13:00.350Z,1.00
2019-03-04T00:13:35.651Z,1.00
2019-03-04T00:14:11.024Z,1.00
2019-03-04T00:14:46.364Z,1.00
2019-03-04T00:15:21.818Z,1.00
2019-03-04T00:15:57.137Z,1.00
2019-03-04T00:16:32.784Z,1.00
2019-03-04T00:17:08.205Z,1.00
2019-03-04T00:17:44.292Z,1.00
2019-03-04T00:18:19.604Z,1.00
2019-03-04T00:18:55.005Z,1.00
2019-03-04T00:19:30.405Z,1.00
2019-03-04T00:20:06.064Z,1.00
2019-03-04T00:20:41.402Z,1.00
2019-03-04T00:21:16.803Z,1.00
2019-03-04T00:21:52.126Z,1.00
2019-03-04T00:22:32.991Z,1.00
2019-03-04T00:23:08.565Z,1.00
2019-03-04T00:23:44.071Z,1.00
2019-03-04T00:24:19.454Z,1.00
2019-03-04T00:24:54.868Z,1.00
2019-03-04T00:25:30.153Z,1.00
2019-03-04T00:26:06.933Z,1.00
2019-03-04T00:26:42.266Z,1.00
2019-03-04T00:27:17.846Z,1.00
2019-03-04T00:27:53.314Z,1.00
2019-03-04T00:28:28.627Z,1.00
2019-03-04T00:29:04.085Z,1.00
2019-03-04T00:29:39.827Z,1.00
2019-03-04T00:30:24.754Z,1.00
2019-03-04T00:31:00.645Z,1.00
2019-03-04T00:31:36.272Z,1.00
2019-03-04T00:32:12.413Z,1.00
2019-03-04T00:32:47.924Z,1.00
2019-03-04T00:33:23.372Z,1.00
2019-03-04T00:33:58.848Z,1.00
2019-03-04T00:34:34.189Z,1.00
2019-03-04T00:35:09.518Z,1.00
2019-03-04T00:35:45.029Z,1.00
2019-03-04T00:36:20.551Z,1.00
2019-03-04T00:36:56.351Z,1.00
2019-03-04T00:37:33.007Z,1.00
2019-03-04T00:38:08.406Z,1.00
2019-03-04T00:38:43.765Z,1.00
2019-03-04T00:39:19.171Z,1.00
2019-03-04T00:39:54.647Z,1.00
2019-03-04T00:40:30.156Z,1.00
2019-03-04T00:41:06.208Z,1.00
2019-03-04T00:41:41.626Z,1.00
2019-03-04T00:42:17.048Z,1.00
2019-03-04T00:42:52.388Z,1.00
2019-03-04T00:43:27.807Z,1.00
2019-03-04T00:44:03.169Z,1.00
2019-03-04T00:44:38.567Z,1.00
2019-03-04T00:45:15.947Z,1.00
2019-03-04T00:45:51.267Z,1.00
2019-03-04T00:46:26.688Z,1.00
2019-03-04T00:47:02.092Z,1.00
2019-03-04T00:47:37.504Z,1.00
2019-03-04T00:48:12.984Z,1.00
2019-03-04T00:48:48.343Z,1.00
2019-03-04T00:49:23.683Z,1.00
2019-03-04T00:49:59.045Z,1.00
2019-03-04T00:50:34.511Z,1.00
2019-03-04T00:51:09.865Z,1.00
2019-03-04T00:51:45.353Z,1.00
2019-03-04T00:52:20.820Z,1.00
2019-03-04T00:52:56.144Z,1.00
2019-03-04T00:53:35.025Z,1.00
2019-03-04T00:54:10.425Z,1.00
2019-03-04T00:54:45.825Z,1.00
2019-03-04T00:55:21.244Z,1.00
2019-03-04T00:55:56.804Z,1.00
2019-03-04T00:56:32.211Z,1.00
2019-03-04T00:57:07.905Z,1.00
2019-03-04T00:57:43.303Z,1.00
2019-03-04T00:58:18.731Z,1.00
2019-03-04T00:58:54.151Z,1.00
2019-03-04T00:59:31.311Z,1.00
2019-03-04T01:00:08.591Z,1.00
2019-03-04T01:00:44.011Z,1.00
2019-03-04T01:01:19.752Z,1.00
2019-03-04T01:02:38.044Z,1.00
2019-03-04T01:03:13.365Z,1.00
2019-03-04T01:03:48.665Z,1.00
2019-03-04T01:04:24.105Z,1.00
2019-03-04T01:04:59.611Z,1.00
2019-03-04T01:05:34.903Z,1.00
2019-03-04T01:06:10.343Z,1.00
2019-03-04T01:06:45.947Z,1.00
2019-03-04T01:07:21.245Z,1.00
2019-03-04T01:07:56.812Z,1.00
2019-03-04T01:08:32.077Z,1.00
2019-03-04T01:09:09.970Z,1.00
2019-03-04T01:09:45.616Z,1.00
2019-03-04T01:10:21.009Z,1.00
2019-03-04T01:10:56.608Z,1.00
2019-03-04T01:11:32.088Z,1.00
2019-03-04T01:12:07.457Z,1.00
2019-03-04T01:12:43.168Z,1.00
2019-03-04T01:13:18.771Z,1.00
2019-03-04T01:13:54.444Z,1.00
2019-03-04T01:14:29.904Z,1.00
2019-03-04T01:15:05.564Z,1.00
2019-03-04T01:15:40.852Z,1.00
2019-03-04T01:16:16.330Z,1.00
2019-03-04T01:16:51.734Z,1.00
2019-03-04T01:17:27.270Z,1.00
2019-03-04T01:18:02.652Z,1.00
2019-03-04T01:18:38.079Z,1.00
2019-03-04T01:19:13.751Z,1.00
2019-03-04T01:19:49.052Z,1.00
2019-03-04T01:20:24.488Z,1.00
2019-03-04T01:20:59.906Z,1.00
2019-03-04T01:21:35.430Z,1.00
2019-03-04T01:22:10.887Z,1.00
2019-03-04T01:22:46.507Z,1.00
2019-03-04T01:23:21.951Z,1.00
2019-03-04T01:23:57.452Z,1.00
2019-03-04T01:24:32.663Z,1.00
2019-03-04T01:25:09.424Z,1.00
2019-03-04T01:25:44.824Z,1.00
2019-03-04T01:26:20.453Z,1.00
2019-03-04T01:26:55.704Z,1.00
2019-03-04T01:27:32.163Z,1.00
2019-03-04T01:28:07.552Z,1.00
2019-03-04T01:28:43.014Z,1.00
2019-03-04T01:29:18.604Z,1.00
2019-03-04T01:29:54.144Z,1.00
2019-03-04T01:30:29.464Z,1.00
2019-03-04T01:31:05.005Z,1.00
2019-03-04T01:31:40.330Z,1.00
2019-03-04T01:32:15.729Z,1.00
2019-03-04T01:32:51.452Z,1.00
2019-03-04T01:33:26.925Z,1.00
2019-03-04T01:34:02.465Z,1.00
2019-03-04T01:34:38.051Z,1.00
2019-03-04T01:35:13.543Z,1.00
2019-03-04T01:35:49.004Z,1.00
2019-03-04T01:36:24.386Z,1.00
2019-03-04T01:36:59.747Z,1.00
2019-03-04T01:37:35.123Z,1.00
2019-03-04T01:38:10.485Z,1.00
2019-03-04T01:38:46.084Z,1.00
2019-03-04T01:39:21.569Z,1.00
2019-03-04T01:39:57.147Z,1.00
2019-03-04T01:40:32.507Z,1.00
2019-03-04T01:41:07.906Z,1.00
2019-03-04T01:41:43.484Z,1.00
2019-03-04T01:42:18.924Z,1.00
2019-03-04T01:42:54.371Z,1.00
2019-03-04T01:43:29.823Z,1.00
2019-03-04T01:44:05.163Z,1.00
2019-03-04T01:44:40.517Z,1.00
2019-03-04T01:45:16.505Z,1.00
2019-03-04T01:45:51.912Z,1.00
2019-03-04T01:46:27.403Z,1.00
2019-03-04T01:47:03.171Z,1.00
2019-03-04T01:47:39.144Z,1.00
2019-03-04T01:48:14.706Z,1.00
2019-03-04T01:48:49.965Z,1.00
2019-03-04T01:49:25.444Z,1.00
2019-03-04T01:50:00.708Z,1.00
2019-03-04T01:50:36.107Z,1.00
2019-03-04T01:51:11.469Z,1.00
2019-03-04T01:51:46.867Z,1.00
2019-03-04T01:52:22.168Z,1.00
2019-03-04T01:52:57.588Z,1.00
2019-03-04T01:53:32.929Z,1.00
2019-03-04T01:54:08.427Z,1.00
2019-03-04T01:54:43.870Z,1.00
2019-03-04T01:55:19.691Z,1.00
2019-03-04T01:55:55.128Z,1.00
2019-03-04T01:56:30.609Z,1.00
2019-03-04T01:57:05.969Z,1.00
2019-03-04T01:57:41.509Z,1.00
2019-03-04T01:58:19.973Z,1.00
2019-03-04T01:58:55.316Z,1.00
2019-03-04T01:59:30.565Z,1.00
2019-03-04T02:00:06.894Z,1.00
2019-03-04T02:00:42.365Z,1.00
2019-03-04T02:01:17.894Z,1.00
2019-03-04T02:01:53.225Z,1.00
2019-03-04T02:02:28.725Z,1.00
2019-03-04T02:03:04.294Z,1.00
2019-03-04T02:03:39.745Z,1.00
2019-03-04T02:04:15.006Z,1.00
2019-03-04T02:04:50.365Z,1.00
2019-03-04T02:05:26.005Z,1.00
2019-03-04T02:06:01.325Z,1.00
2019-03-04T02:06:36.665Z,1.00
2019-03-04T02:07:12.109Z,1.00
2019-03-04T02:07:47.604Z,1.00
2019-03-04T02:08:22.986Z,1.00
2019-03-04T02:08:59.585Z,1.00
2019-03-04T02:09:36.047Z,1.00
2019-03-04T02:10:13.526Z,1.00
2019-03-04T02:11:13.627Z,1.00
2019-03-04T02:11:49.086Z,1.00
2019-03-04T02:12:24.347Z,1.00
2019-03-04T02:13:00.011Z,1.00
2019-03-04T02:13:35.551Z,1.00
2019-03-04T02:14:10.967Z,1.00
2019-03-04T02:14:46.364Z,1.00
2019-03-04T02:15:21.728Z,1.00
2019-03-04T02:15:56.987Z,1.00
2019-03-04T02:16:32.535Z,1.00
2019-03-04T02:17:08.076Z,1.00
2019-03-04T02:17:43.469Z,1.00
2019-03-04T02:18:18.935Z,1.00
2019-03-04T02:18:54.288Z,1.00
2019-03-04T02:19:29.731Z,1.00
2019-03-04T02:20:06.388Z,1.00
2019-03-04T02:20:41.791Z,1.00
2019-03-04T02:21:17.218Z,1.00
2019-03-04T02:21:52.654Z,1.00
2019-03-04T02:22:28.050Z,1.00
2019-03-04T02:23:03.605Z,1.00
2019-03-04T02:23:39.646Z,1.00
2019-03-04T02:24:24.046Z,1.00
2019-03-04T02:24:59.485Z,1.00
2019-03-04T02:26:16.213Z,1.00
2019-03-04T02:26:51.811Z,1.00
2019-03-04T02:27:27.053Z,1.00
2019-03-04T02:28:02.673Z,1.00
2019-03-04T02:28:37.964Z,1.00
2019-03-04T02:29:13.481Z,1.00
2019-03-04T02:29:49.004Z,1.00
2019-03-04T02:30:26.778Z,1.00
2019-03-04T02:31:02.043Z,1.00
2019-03-04T02:31:37.323Z,1.00
2019-03-04T02:32:12.892Z,1.00
2019-03-04T02:32:48.284Z,1.00
2019-03-04T02:33:23.625Z,1.00
2019-03-04T02:33:59.063Z,1.00
2019-03-04T02:34:34.349Z,1.00
2019-03-04T02:35:09.785Z,1.00
2019-03-04T02:35:45.263Z,1.00
2019-03-04T02:36:20.712Z,1.00
2019-03-04T02:36:56.415Z,1.00
2019-03-04T02:37:31.868Z,1.00
2019-03-04T02:38:07.589Z,1.00
2019-03-04T02:38:42.910Z,1.00
2019-03-04T02:39:18.233Z,1.00
2019-03-04T02:39:53.425Z,1.00
2019-03-04T02:40:28.732Z,1.00
2019-03-04T02:41:04.195Z,1.00
2019-03-04T02:41:39.606Z,1.00
2019-03-04T02:42:14.892Z,1.00
2019-03-04T02:42:50.223Z,1.00
2019-03-04T02:43:25.709Z,1.00
2019-03-04T02:44:01.083Z,1.00
2019-03-04T02:44:36.504Z,1.00
2019-03-04T02:45:13.989Z,1.00
2019-03-04T02:45:49.425Z,1.00
2019-03-04T02:46:25.008Z,1.00
2019-03-04T02:47:00.405Z,1.00
2019-03-04T02:47:35.706Z,1.00
2019-03-04T02:48:11.684Z,1.00
2019-03-04T02:48:47.330Z,1.00
2019-03-04T02:49:22.743Z,1.00
2019-03-04T02:49:58.033Z,1.00
2019-03-04T02:50:33.404Z,1.00
2019-03-04T02:51:09.046Z,1.00
2019-03-04T02:51:44.654Z,1.00
2019-03-04T02:52:20.087Z,1.00
2019-03-04T02:52:55.513Z,1.00
2019-03-04T02:53:30.909Z,1.00
2019-03-04T02:54:06.469Z,1.00
2019-03-04T02:54:41.855Z,1.00
2019-03-04T02:55:17.825Z,1.00
2019-03-04T02:55:53.293Z,1.00
2019-03-04T02:56:28.843Z,1.00
2019-03-04T02:57:04.349Z,1.00
2019-03-04T02:57:39.885Z,1.00
2019-03-04T02:58:15.416Z,1.00
2019-03-04T02:58:50.970Z,1.00
2019-03-04T02:59:26.344Z,1.00
2019-03-04T03:00:01.955Z,1.00
2019-03-04T03:00:37.344Z,1.00
2019-03-04T03:01:12.805Z,1.00
2019-03-04T03:01:48.194Z,1.00
2019-03-04T03:02:23.666Z,1.00
2019-03-04T03:02:59.085Z,1.00
2019-03-04T03:03:34.385Z,1.00
2019-03-04T03:04:09.705Z,1.00
2019-03-04T03:04:45.124Z,1.00
2019-03-04T03:05:20.813Z,1.00
2019-03-04T03:05:56.187Z,1.00
2019-03-04T03:06:31.785Z,1.00
2019-03-04T03:07:07.305Z,1.00
2019-03-04T03:07:42.805Z,1.00
2019-03-04T03:08:18.267Z,1.00
2019-03-04T03:08:53.714Z,1.00
2019-03-04T03:09:29.128Z,1.00
2019-03-04T03:10:05.207Z,1.00
2019-03-04T03:10:40.585Z,1.00
2019-03-04T03:11:16.206Z,1.00
2019-03-04T03:11:51.546Z,1.00
2019-03-04T03:12:27.133Z,1.00
2019-03-04T03:13:02.746Z,1.00
2019-03-04T03:13:38.030Z,1.00
2019-03-04T03:14:13.365Z,1.00
2019-03-04T03:14:48.729Z,1.00
2019-03-04T03:15:24.226Z,1.00
2019-03-04T03:15:59.667Z,1.00
2019-03-04T03:16:46.246Z,1.00
2019-03-04T03:17:23.389Z,1.00
2019-03-04T03:17:58.867Z,1.00
2019-03-04T03:18:34.183Z,1.00
2019-03-04T03:19:09.708Z,1.00
2019-03-04T03:19:45.049Z,1.00
2019-03-04T03:20:20.567Z,1.00
2019-03-04T03:20:56.070Z,1.00
2019-03-04T03:21:33.112Z,1.00
2019-03-04T03:22:08.612Z,1.00
2019-03-04T03:22:44.190Z,1.00
2019-03-04T03:23:19.475Z,1.10
2019-03-04T03:23:54.888Z,1.00
2019-03-04T03:24:30.331Z,1.80
2019-03-04T03:25:05.973Z,1.50
2019-03-04T03:25:45.479Z,3.40
2019-03-04T03:26:20.913Z,4.20
2019-03-04T03:26:56.252Z,2.70
2019-03-04T03:27:31.593Z,3.30
2019-03-04T03:28:06.914Z,3.10
2019-03-04T03:28:42.336Z,3.10
2019-03-04T03:29:17.611Z,4.20
2019-03-04T03:29:52.969Z,4.40
2019-03-04T03:30:28.310Z,5.40
2019-03-04T03:31:03.738Z,5.50
2019-03-04T03:31:39.050Z,6.80
2019-03-04T03:32:14.528Z,5.30
2019-03-04T03:32:50.282Z,4.90
2019-03-04T03:33:25.806Z,5.30
2019-03-04T03:34:01.360Z,5.30
2019-03-04T03:34:36.926Z,4.90
2019-03-04T03:35:12.445Z,3.70
2019-03-04T03:35:48.306Z,4.00
2019-03-04T03:36:23.930Z,3.50
2019-03-04T03:36:59.286Z,4.90
2019-03-04T03:37:34.744Z,5.40
2019-03-04T03:38:10.236Z,5.30
2019-03-04T03:38:45.651Z,4.70
2019-03-04T03:39:20.977Z,4.30
2019-03-04T03:39:56.193Z,5.80
2019-03-04T03:40:31.569Z,7.70
2019-03-04T03:41:06.999Z,10.80
2019-03-04T03:41:42.433Z,9.60
2019-03-04T03:42:19.173Z,9.60
2019-03-04T03:42:54.815Z,10.40
2019-03-04T03:43:30.446Z,8.00
2019-03-04T03:44:06.888Z,10.50
2019-03-04T03:44:42.265Z,10.90
2019-03-04T03:45:18.245Z,12.80
2019-03-04T03:46:24.525Z,11.60
2019-03-04T03:46:59.866Z,11.30
2019-03-04T03:47:35.434Z,12.40
2019-03-04T03:48:10.745Z,12.30
2019-03-04T03:48:46.787Z,12.00
2019-03-04T03:49:22.187Z,13.40
2019-03-04T03:49:57.608Z,13.70
2019-03-04T03:50:32.925Z,13.80
2019-03-04T03:51:08.375Z,12.80
2019-03-04T03:51:43.896Z,13.40
2019-03-04T03:52:19.898Z,12.90
2019-03-04T03:52:55.427Z,12.60
2019-03-04T03:53:31.047Z,11.80
2019-03-04T03:54:06.434Z,11.10
2019-03-04T03:54:41.727Z,12.40
2019-03-04T03:55:17.487Z,12.00
2019-03-04T03:55:53.032Z,12.40
2019-03-04T03:56:28.596Z,10.20
2019-03-04T03:57:03.970Z,10.40
2019-03-04T03:57:39.746Z,9.20
2019-03-04T03:58:15.230Z,8.00
2019-03-04T03:58:50.565Z,8.10
2019-03-04T03:59:26.369Z,6.40
2019-03-04T04:00:01.986Z,5.80
2019-03-04T04:00:37.664Z,3.20
2019-03-04T04:01:13.181Z,3.40
2019-03-04T04:01:48.704Z,2.40
2019-03-04T04:02:24.213Z,1.00
2019-03-04T04:02:59.688Z,1.00
2019-03-04T04:03:34.973Z,1.00
2019-03-04T04:04:10.250Z,1.00
2019-03-04T04:04:45.787Z,1.00
2019-03-04T04:05:21.168Z,1.00
2019-03-04T04:05:56.685Z,1.00
2019-03-04T04:06:31.986Z,1.00
2019-03-04T04:07:07.494Z,1.00
2019-03-04T04:07:42.874Z,1.00
2019-03-04T04:08:18.288Z,1.00
2019-03-04T04:08:53.746Z,1.00
2019-03-04T04:09:29.137Z,1.00
2019-03-04T04:10:04.547Z,1.00
2019-03-04T04:10:39.833Z,1.00
2019-03-04T04:11:15.298Z,1.00
2019-03-04T04:11:50.713Z,1.00
2019-03-04T04:12:26.155Z,1.00
2019-03-04T04:13:01.608Z,1.00
2019-03-04T04:13:37.106Z,1.00
2019-03-04T04:14:12.531Z,1.00
2019-03-04T04:14:47.884Z,1.00
2019-03-04T04:15:23.265Z,1.00
2019-03-04T04:15:58.724Z,1.00
2019-03-04T04:16:34.201Z,1.00
2019-03-04T04:17:09.592Z,1.00
2019-03-04T04:17:45.135Z,1.00
2019-03-04T04:18:20.486Z,1.00
2019-03-04T04:18:55.885Z,1.00
2019-03-04T04:19:31.305Z,1.00
2019-03-04T04:20:07.025Z,1.00
2019-03-04T04:20:42.478Z,1.00
2019-03-04T04:21:17.806Z,1.00
2019-03-04T04:21:53.206Z,1.00
2019-03-04T04:22:28.547Z,1.00
2019-03-04T04:23:04.045Z,1.00
2019-03-04T04:23:39.312Z,1.00
2019-03-04T04:24:14.869Z,1.00
2019-03-04T04:24:50.265Z,1.00
2019-03-04T04:25:25.725Z,1.00
2019-03-04T04:26:01.145Z,1.00
2019-03-04T04:26:36.685Z,1.00
2019-03-04T04:27:12.193Z,1.00
2019-03-04T04:27:47.587Z,1.00
2019-03-04T04:28:23.172Z,1.00
2019-03-04T04:29:23.792Z,1.00
2019-03-04T04:29:59.225Z,1.00
2019-03-04T04:30:35.045Z,1.00
2019-03-04T04:31:10.465Z,1.00
2019-03-04T04:31:45.924Z,1.00
2019-03-04T04:32:21.352Z,1.00
2019-03-04T04:32:57.175Z,1.00
2019-03-04T04:33:32.745Z,1.00
2019-03-04T04:34:08.306Z,1.00
2019-03-04T04:34:43.714Z,1.00
2019-03-04T04:35:19.331Z,1.00
2019-03-04T04:35:54.646Z,1.00
2019-03-04T04:36:30.067Z,1.00
2019-03-04T04:37:05.545Z,1.00
2019-03-04T04:37:40.833Z,1.00
2019-03-04T04:38:16.395Z,1.00
2019-03-04T04:38:51.692Z,1.00
2019-03-04T04:39:27.145Z,1.00
2019-03-04T04:40:02.725Z,1.00
2019-03-04T04:40:38.224Z,1.00
2019-03-04T04:41:14.145Z,1.00
2019-03-04T04:41:49.606Z,1.00
2019-03-04T04:42:25.104Z,1.00
2019-03-04T04:43:00.573Z,1.00
2019-03-04T04:43:36.210Z,1.00
2019-03-04T04:44:11.489Z,1.00
2019-03-04T04:44:46.808Z,1.00
2019-03-04T04:45:22.131Z,1.00
2019-03-04T04:45:57.456Z,1.00
2019-03-04T04:46:48.413Z,1.00
2019-03-04T04:47:23.811Z,1.00
2019-03-04T04:47:59.110Z,1.00
2019-03-04T04:48:34.491Z,1.00
2019-03-04T04:49:09.891Z,1.00
2019-03-04T04:49:45.310Z,1.00
2019-03-04T04:50:20.650Z,1.00
2019-03-04T04:50:56.087Z,1.00
2019-03-04T04:51:31.409Z,1.00
2019-03-04T04:52:06.850Z,1.00
2019-03-04T04:52:42.389Z,1.00
2019-03-04T04:53:17.709Z,1.00
2019-03-04T04:53:53.605Z,1.00
2019-03-04T04:54:28.967Z,1.00
2019-03-04T04:55:04.627Z,1.00
2019-03-04T04:55:39.928Z,1.00
2019-03-04T04:56:15.388Z,1.00
2019-03-04T04:56:50.868Z,1.00
2019-03-04T04:57:26.115Z,1.00
2019-03-04T04:58:01.668Z,1.00
2019-03-04T04:58:36.991Z,1.00
2019-03-04T04:59:12.486Z,1.00
2019-03-04T04:59:47.829Z,1.00
2019-03-04T05:00:23.455Z,1.00
2019-03-04T05:00:58.888Z,1.00
2019-03-04T05:01:34.270Z,1.00
2019-03-04T05:02:09.691Z,1.00
2019-03-04T05:02:44.990Z,1.00
2019-03-04T05:03:20.665Z,1.00
2019-03-04T05:03:55.969Z,1.00
2019-03-04T05:04:32.730Z,1.00
2019-03-04T05:05:20.284Z,1.00
2019-03-04T05:05:55.884Z,1.00
2019-03-04T05:06:31.170Z,1.00
2019-03-04T05:07:06.725Z,1.00
2019-03-04T05:07:42.395Z,1.00
2019-03-04T05:08:18.005Z,1.00
2019-03-04T05:08:53.425Z,1.00
2019-03-04T05:09:28.926Z,1.00
2019-03-04T05:10:04.707Z,1.00
2019-03-04T05:10:41.281Z,1.00
2019-03-04T05:11:16.721Z,1.00
2019-03-04T05:11:52.265Z,1.00
2019-03-04T05:12:27.946Z,1.00
2019-03-04T05:13:03.454Z,1.00
2019-03-04T05:13:42.375Z,1.00
2019-03-04T05:14:17.852Z,1.00
2019-03-04T05:14:53.365Z,1.00
2019-03-04T05:15:28.787Z,1.00
2019-03-04T05:16:04.224Z,1.00
2019-03-04T05:16:39.585Z,1.00
2019-03-04T05:17:15.105Z,1.00
2019-03-04T05:17:50.505Z,1.00
2019-03-04T05:18:26.064Z,1.00
2019-03-04T05:19:01.475Z,1.00
2019-03-04T05:19:36.962Z,1.00
2019-03-04T05:20:17.250Z,1.00
2019-03-04T05:20:52.669Z,1.00
2019-03-04T05:21:28.171Z,1.00
2019-03-04T05:22:03.508Z,1.00
2019-03-04T05:22:38.888Z,1.00
2019-03-04T05:23:14.316Z,1.00
2019-03-04T05:23:49.689Z,1.00
2019-03-04T05:24:25.048Z,1.00
2019-03-04T05:25:00.449Z,1.00
2019-03-04T05:25:36.035Z,1.00
2019-03-04T05:26:11.348Z,1.00
2019-03-04T05:26:46.988Z,1.00
2019-03-04T05:27:23.056Z,1.00
2019-03-04T05:27:58.449Z,1.00
2019-03-04T05:28:33.808Z,1.00
2019-03-04T05:29:09.248Z,1.00
2019-03-04T05:29:46.019Z,1.00
2019-03-04T05:30:21.677Z,1.00
2019-03-04T05:30:57.136Z,1.00
2019-03-04T05:31:32.588Z,1.00
2019-03-04T05:32:08.036Z,1.00
2019-03-04T05:32:43.569Z,1.00
2019-03-04T05:33:19.008Z,1.00
2019-03-04T05:33:54.468Z,1.00
2019-03-04T05:34:29.739Z,1.00
2019-03-04T05:35:05.328Z,1.00
2019-03-04T05:35:40.769Z,1.00
2019-03-04T05:36:16.028Z,1.00
2019-03-04T05:36:51.249Z,1.00
2019-03-04T05:37:26.490Z,1.00
2019-03-04T05:38:01.936Z,1.00
2019-03-04T05:38:36.999Z,1.00
2019-03-04T05:39:12.589Z,1.00
2019-03-04T05:39:47.869Z,1.00
2019-03-04T05:40:23.872Z,1.00
2019-03-04T05:40:59.396Z,1.00
2019-03-04T05:41:35.015Z,1.00
2019-03-04T05:42:10.447Z,1.00
2019-03-04T05:42:45.987Z,1.00
2019-03-04T05:43:21.532Z,1.00
2019-03-04T05:43:57.074Z,1.00
2019-03-04T05:44:32.568Z,1.00
2019-03-04T05:45:09.067Z,1.00
2019-03-04T05:45:44.951Z,1.00
2019-03-04T05:46:20.328Z,1.00
2019-03-04T05:46:55.788Z,1.00
2019-03-04T05:47:31.268Z,1.00
2019-03-04T05:48:07.691Z,1.00
2019-03-04T05:48:43.557Z,1.00
2019-03-04T05:49:19.216Z,1.00
2019-03-04T05:49:54.858Z,1.00
2019-03-04T05:50:30.485Z,1.00
2019-03-04T05:51:06.099Z,1.00
2019-03-04T05:51:41.460Z,1.00
2019-03-04T05:52:16.913Z,1.00
2019-03-04T05:52:52.620Z,1.00
2019-03-04T05:53:27.925Z,1.00
2019-03-04T05:54:03.484Z,1.00
2019-03-04T05:54:38.784Z,1.00
2019-03-04T05:55:15.424Z,1.00
2019-03-04T05:55:50.758Z,1.00
2019-03-04T05:56:26.197Z,1.00
2019-03-04T05:57:01.724Z,1.00
2019-03-04T05:57:37.257Z,1.00
2019-03-04T05:58:12.825Z,1.00
2019-03-04T05:58:48.325Z,1.00
2019-03-04T05:59:23.775Z,1.00
2019-03-04T05:59:59.904Z,1.00
2019-03-04T06:00:39.833Z,1.00
2019-03-04T06:01:26.534Z,1.00
2019-03-04T06:02:09.934Z,1.00
2019-03-04T06:02:45.488Z,1.00
2019-03-04T06:03:20.970Z,1.00
2019-03-04T06:03:58.232Z,1.00
2019-03-04T06:04:33.513Z,1.00
2019-03-04T06:05:09.153Z,1.00
2019-03-04T06:05:44.495Z,1.00
2019-03-04T06:06:38.963Z,1.00
2019-03-04T06:07:36.411Z,1.00
2019-03-04T06:08:11.899Z,1.00
2019-03-04T06:08:47.361Z,1.00
2019-03-04T06:09:22.791Z,1.00
2019-03-04T06:09:58.251Z,1.00
2019-03-04T06:10:33.640Z,1.00
2019-03-04T06:11:09.387Z,1.00
2019-03-04T06:11:44.770Z,1.00
2019-03-04T06:12:20.247Z,1.00
2019-03-04T06:12:55.771Z,1.00
2019-03-04T06:13:31.362Z,1.00
2019-03-04T06:14:07.777Z,1.00
2019-03-04T06:14:43.345Z,1.00
2019-03-04T06:15:20.316Z,1.00
2019-03-04T06:15:55.810Z,1.00
2019-03-04T06:16:31.388Z,1.00
2019-03-04T06:17:06.770Z,1.00
2019-03-04T06:17:42.328Z,1.00
2019-03-04T06:18:17.868Z,1.00
2019-03-04T06:18:53.286Z,1.00
2019-03-04T06:19:28.607Z,1.00
2019-03-04T06:20:04.154Z,1.00
2019-03-04T06:20:39.838Z,1.00
2019-03-04T06:21:15.213Z,1.00
2019-03-04T06:21:50.913Z,1.00
2019-03-04T06:22:26.293Z,1.00
2019-03-04T06:23:01.712Z,1.00
2019-03-04T06:23:37.350Z,1.00
2019-03-04T06:24:13.282Z,1.00
2019-03-04T06:24:48.895Z,1.00
2019-03-04T06:25:28.911Z,1.00
2019-03-04T06:26:04.609Z,1.00
2019-03-04T06:26:40.209Z,1.00
2019-03-04T06:27:15.440Z,1.00
2019-03-04T06:27:51.173Z,1.00
2019-03-04T06:28:26.677Z,1.00
2019-03-04T06:29:02.295Z,1.00
2019-03-04T06:29:37.926Z,1.00
2019-03-04T06:30:16.195Z,1.00
2019-03-04T06:30:51.613Z,1.00
2019-03-04T06:31:26.961Z,1.00
2019-03-04T06:32:02.476Z,1.00
2019-03-04T06:32:37.872Z,1.00
2019-03-04T06:33:13.463Z,1.00
2019-03-04T06:33:48.968Z,1.00
2019-03-04T06:34:24.747Z,1.00
2019-03-04T06:35:00.336Z,1.00
2019-03-04T06:35:35.821Z,1.00
2019-03-04T06:36:11.109Z,1.00
2019-03-04T06:36:46.678Z,1.00
2019-03-04T06:37:22.012Z,1.00
2019-03-04T06:37:57.519Z,1.00
2019-03-04T06:38:32.895Z,1.00
2019-03-04T06:39:09.452Z,1.00
2019-03-04T06:39:44.710Z,1.00
2019-03-04T06:40:20.510Z,1.00
2019-03-04T06:40:55.807Z,1.00
2019-03-04T06:41:31.412Z,1.00
2019-03-04T06:42:06.954Z,1.00
2019-03-04T06:42:42.904Z,1.00
2019-03-04T06:43:18.471Z,1.00
2019-03-04T06:43:53.966Z,1.00
2019-03-04T06:44:29.370Z,1.00
2019-03-04T06:45:05.108Z,1.00
2019-03-04T06:45:40.481Z,1.00
2019-03-04T06:46:16.090Z,1.00
2019-03-04T06:46:51.514Z,1.00
2019-03-04T06:47:26.974Z,1.00
2019-03-04T06:48:02.460Z,1.00
2019-03-04T06:48:37.821Z,1.00
2019-03-04T06:49:13.218Z,1.00
2019-03-04T06:49:48.967Z,1.00
2019-03-04T06:50:53.186Z,1.00
2019-03-04T06:51:40.486Z,1.00
2019-03-04T06:52:15.874Z,1.00
2019-03-04T06:52:51.354Z,1.00
2019-03-04T06:53:43.269Z,1.00
2019-03-04T06:55:17.573Z,1.00
2019-03-04T06:56:23.151Z,1.00
2019-03-04T06:57:08.925Z,1.00
2019-03-04T06:57:52.726Z,1.00
2019-03-04T06:58:28.265Z,1.00
2019-03-04T06:59:08.352Z,1.00
2019-03-04T07:00:35.209Z,1.00
2019-03-04T07:01:14.911Z,1.00
2019-03-04T07:01:54.230Z,1.00
2019-03-04T07:02:29.904Z,1.00
2019-03-04T07:03:10.322Z,1.00
2019-03-04T07:04:35.131Z,1.00
2019-03-04T07:05:54.400Z,1.00
2019-03-04T07:06:29.726Z,1.00
2019-03-04T07:07:05.178Z,1.00
2019-03-04T07:07:40.649Z,1.00
2019-03-04T07:09:12.223Z,1.00
2019-03-04T07:09:47.792Z,1.00
2019-03-04T07:10:23.344Z,1.00
2019-03-04T07:10:58.649Z,1.00
2019-03-04T07:11:35.201Z,1.00
2019-03-04T07:12:10.537Z,1.00
2019-03-04T07:12:45.925Z,1.00
2019-03-04T07:13:21.442Z,1.00
2019-03-04T07:13:56.912Z,1.00
2019-03-04T07:14:32.354Z,1.00
2019-03-04T07:15:08.164Z,1.00
2019-03-04T07:15:43.413Z,1.00
2019-03-04T07:16:18.740Z,1.00
2019-03-04T07:16:54.794Z,1.00
2019-03-04T07:17:30.245Z,1.00
2019-03-04T07:18:05.677Z,1.00
2019-03-04T07:18:40.990Z,1.00
2019-03-04T07:19:21.833Z,1.00
2019-03-04T07:20:06.131Z,1.00
2019-03-04T07:20:41.583Z,1.00
2019-03-04T07:21:17.128Z,1.00
2019-03-04T07:21:52.566Z,1.00
2019-03-04T07:22:28.026Z,1.00
2019-03-04T07:23:03.428Z,1.00
2019-03-04T07:23:38.849Z,1.00
2019-03-04T07:24:14.231Z,1.00
2019-03-04T07:24:49.548Z,1.00
2019-03-04T07:25:24.849Z,1.00
2019-03-04T07:26:00.376Z,1.00
2019-03-04T07:26:36.240Z,1.00
2019-03-04T07:27:11.719Z,1.00
2019-03-04T07:27:47.296Z,1.00
2019-03-04T07:28:22.818Z,1.00
2019-03-04T07:28:58.528Z,1.00
2019-03-04T07:29:34.033Z,1.00
2019-03-04T07:30:11.411Z,1.00
2019-03-04T07:30:47.052Z,1.00
2019-03-04T07:31:22.551Z,1.00
2019-03-04T07:31:58.093Z,1.00
2019-03-04T07:32:33.463Z,1.00
2019-03-04T07:33:08.947Z,1.00
2019-03-04T07:33:44.351Z,1.00
2019-03-04T07:34:19.700Z,1.00
2019-03-04T07:34:55.150Z,1.00
2019-03-04T07:35:30.591Z,1.00
2019-03-04T07:36:07.999Z,1.00
2019-03-04T07:36:43.744Z,1.00
2019-03-04T07:37:19.310Z,1.00
2019-03-04T07:38:11.943Z,1.00
2019-03-04T07:38:58.114Z,1.00
2019-03-04T07:39:33.627Z,1.00
2019-03-04T07:40:10.396Z,1.00
2019-03-04T07:40:46.150Z,1.00
2019-03-04T07:41:21.694Z,1.00
2019-03-04T07:41:58.816Z,1.00
2019-03-04T07:42:34.210Z,1.00
2019-03-04T07:43:09.671Z,1.00
2019-03-04T07:43:45.115Z,1.00
2019-03-04T07:44:20.894Z,1.00
2019-03-04T07:44:56.272Z,1.00
2019-03-04T07:45:31.805Z,1.00
2019-03-04T07:46:07.384Z,1.00
2019-03-04T07:46:42.692Z,1.00
2019-03-04T07:47:18.125Z,1.00
2019-03-04T07:47:53.856Z,1.00
2019-03-04T07:48:29.296Z,1.00
2019-03-04T07:49:05.068Z,1.00
2019-03-04T07:49:40.770Z,1.00
2019-03-04T07:50:16.191Z,1.00
2019-03-04T07:50:51.497Z,1.00
2019-03-04T07:51:26.972Z,1.00
2019-03-04T07:52:02.938Z,1.00
2019-03-04T07:52:38.565Z,1.00
2019-03-04T07:53:14.093Z,1.00
2019-03-04T07:53:49.501Z,1.00
2019-03-04T07:54:24.916Z,1.00
2019-03-04T07:55:00.320Z,1.00
2019-03-04T07:55:35.816Z,1.00
2019-03-04T07:56:11.429Z,1.00
2019-03-04T07:56:47.003Z,1.00
2019-03-04T07:57:22.290Z,1.00
2019-03-04T07:57:57.730Z,1.00
2019-03-04T07:58:33.189Z,1.00
2019-03-04T07:59:08.826Z,1.00
2019-03-04T07:59:44.309Z,1.00
2019-03-04T08:00:19.770Z,1.00
2019-03-04T08:00:55.270Z,1.00
2019-03-04T08:01:30.888Z,99.90
2019-03-04T08:02:06.374Z,99.90
2019-03-04T08:02:41.805Z,99.90
2019-03-04T08:03:17.353Z,99.90
2019-03-04T08:03:52.752Z,99.90
2019-03-04T08:04:28.338Z,99.90
2019-03-04T08:05:03.730Z,99.90
2019-03-04T08:05:39.073Z,99.90